createdAt,value
2024-02-05T00:00:22.017Z,95673.00
2024-02-05T00:01:22.106Z,95675.00
2024-02-05T00:02:22.028Z,95675.00
2024-02-05T00:12:23.528Z,95677.00
2024-02-05T00:13:22.950Z,95675.00
2024-02-05T00:14:23.008Z,95675.00
2024-02-05T00:15:23.015Z,95677.00
2024-02-05T00:16:23.466Z,95675.00
2024-02-05T00:21:04.581Z,95677.00
2024-02-05T00:22:04.450Z,95679.00
2024-02-05T00:52:04.152Z,95653.00
2024-02-05T00:52:51.487Z,95647.00
2024-02-05T00:53:51.885Z,95639.00
2024-02-05T00:54:51.608Z,95649.00
2024-02-05T00:55:51.373Z,95647.00
2024-02-05T00:56:51.378Z,95645.00
2024-02-05T00:57:51.718Z,95645.00
2024-02-05T00:58:51.377Z,95643.00
2024-02-05T00:59:51.488Z,95655.00
2024-02-05T01:00:51.405Z,95659.00
2024-02-05T01:01:51.736Z,95657.00
2024-02-05T01:02:51.326Z,95657.00
2024-02-05T01:05:11.738Z,95659.00
2024-02-05T01:06:12.169Z,95661.00
2024-02-05T01:08:31.601Z,95659.00
2024-02-05T01:09:31.189Z,95661.00
2024-02-05T01:10:31.242Z,95657.00
2024-02-05T01:11:32.211Z,95649.00
2024-02-05T01:12:31.875Z,95649.00
2024-02-05T01:13:32.248Z,95643.00
2024-02-05T01:14:31.207Z,95645.00
2024-02-05T01:15:31.302Z,95645.00
2024-02-05T01:16:31.468Z,95657.00
2024-02-05T01:17:31.547Z,95665.00
2024-02-05T01:18:31.237Z,95669.00
2024-02-05T01:19:31.466Z,95669.00
2024-02-05T01:20:31.304Z,95663.00
2024-02-05T01:21:32.593Z,95655.00
2024-02-05T01:26:47.633Z,95659.00
2024-02-05T01:27:34.599Z,95659.00
2024-02-05T01:28:34.163Z,95647.00
2024-02-05T01:41:16.853Z,95629.00
2024-02-05T01:42:16.635Z,95629.00
2024-02-05T01:43:15.890Z,95639.00
2024-02-05T01:44:15.748Z,95643.00
2024-02-05T01:45:16.509Z,95631.00
2024-02-05T01:46:15.837Z,95627.00
2024-02-05T01:51:55.447Z,95651.00
2024-02-05T01:52:52.304Z,95631.00
2024-02-05T01:53:52.557Z,95625.00
2024-02-05T02:05:00.059Z,95614.00
2024-02-05T02:05:59.801Z,95610.00
2024-02-05T02:06:59.796Z,95612.00
2024-02-05T02:08:00.748Z,95604.00
2024-02-05T02:09:00.151Z,95606.00
2024-02-05T02:10:00.407Z,95614.00
2024-02-05T02:10:59.753Z,95614.00
2024-02-05T02:11:59.656Z,95616.00
2024-02-05T02:12:59.949Z,95616.00
2024-02-05T02:14:00.070Z,95612.00
2024-02-05T02:17:02.664Z,95612.00
2024-02-05T02:18:02.524Z,95616.00
2024-02-05T02:19:02.565Z,95618.00
2024-02-05T02:20:03.032Z,95624.00
2024-02-05T02:21:02.385Z,95620.00
2024-02-05T02:22:02.545Z,95620.00
2024-02-05T02:23:02.590Z,95620.00
2024-02-05T02:25:50.450Z,95614.00
2024-02-05T02:26:50.765Z,95610.00
2024-02-05T02:27:50.080Z,95606.00
2024-02-05T02:28:51.081Z,95614.00
2024-02-05T02:32:57.253Z,95629.00
2024-02-05T02:33:57.331Z,95631.00
2024-02-05T02:34:58.531Z,95629.00
2024-02-05T02:35:57.467Z,95624.00
2024-02-05T02:36:57.283Z,95618.00
2024-02-05T02:37:57.091Z,95622.00
2024-02-05T02:38:57.089Z,95620.00
2024-02-05T02:39:57.219Z,95622.00
2024-02-05T02:40:57.234Z,95624.00
2024-02-05T02:49:02.755Z,95622.00
2024-02-05T02:50:02.276Z,95625.00
2024-02-05T02:51:02.322Z,95639.00
2024-02-05T02:52:02.405Z,95618.00
2024-02-05T02:53:02.646Z,95606.00
2024-02-05T02:54:02.101Z,95602.00
2024-02-05T02:55:02.225Z,95614.00
2024-02-05T02:56:03.237Z,95612.00
2024-02-05T02:57:02.224Z,95618.00
2024-02-05T02:58:02.173Z,95624.00
2024-02-05T02:59:02.148Z,95612.00
2024-02-05T03:00:03.159Z,95618.00
2024-02-05T03:01:02.263Z,95616.00
2024-02-05T03:02:02.522Z,95618.00
2024-02-05T03:03:02.486Z,95618.00
2024-02-05T03:04:02.337Z,95629.00
2024-02-05T03:05:02.350Z,95645.00
2024-02-05T03:06:02.120Z,95649.00
2024-02-05T03:07:02.278Z,95641.00
2024-02-05T03:08:02.223Z,95625.00
2024-02-05T03:09:02.089Z,95624.00
2024-02-05T03:10:02.205Z,95629.00
2024-02-05T03:11:02.427Z,95645.00
2024-02-05T03:12:02.012Z,95647.00
2024-02-05T03:18:15.238Z,95645.00
2024-02-05T03:19:15.060Z,95641.00
2024-02-05T03:20:16.206Z,95641.00
2024-02-05T03:21:16.164Z,95639.00
2024-02-05T03:22:16.206Z,95627.00
2024-02-05T03:23:15.144Z,95622.00
2024-02-05T03:24:14.927Z,95620.00
2024-02-05T03:25:15.038Z,95629.00
2024-02-05T03:26:15.095Z,95651.00
2024-02-05T03:28:35.713Z,95649.00
2024-02-05T03:29:35.750Z,95649.00
2024-02-05T03:30:35.000Z,95657.00
2024-02-05T03:31:34.981Z,95651.00
2024-02-05T03:32:34.733Z,95651.00
2024-02-05T03:33:35.132Z,95651.00
2024-02-05T03:37:04.952Z,95647.00
2024-02-05T03:38:03.070Z,95655.00
2024-02-05T03:40:23.415Z,95657.00
2024-02-05T03:41:23.880Z,95663.00
2024-02-05T03:42:23.619Z,95667.00
2024-02-05T03:43:24.201Z,95665.00
2024-02-05T03:54:36.936Z,95661.00
2024-02-05T04:01:23.512Z,95669.00
2024-02-05T04:06:24.993Z,95677.00
2024-02-05T04:07:24.696Z,95675.00
2024-02-05T04:08:24.636Z,95675.00
2024-02-05T04:09:25.032Z,95677.00
2024-02-05T04:13:27.366Z,95677.00
2024-02-05T04:15:54.696Z,95679.00
2024-02-05T04:16:46.683Z,95671.00
2024-02-05T04:17:46.647Z,95669.00
2024-02-05T04:18:46.922Z,95665.00
2024-02-05T04:19:46.682Z,95667.00
2024-02-05T04:20:47.154Z,95669.00
2024-02-05T04:21:46.653Z,95671.00
2024-02-05T04:22:46.762Z,95675.00
2024-02-05T04:23:46.721Z,95679.00
2024-02-05T04:24:46.697Z,95673.00
2024-02-05T04:28:51.416Z,95685.00
2024-02-05T04:29:50.954Z,95685.00
2024-02-05T04:32:21.379Z,95692.00
2024-02-05T04:35:30.433Z,95686.00
2024-02-05T04:36:30.034Z,95690.00
2024-02-05T04:48:37.693Z,95679.00
2024-02-05T04:49:40.422Z,95681.00
2024-02-05T04:50:38.607Z,95683.00
2024-02-05T04:51:37.306Z,95683.00
2024-02-05T04:52:37.693Z,95681.00
2024-02-05T04:53:37.446Z,95690.00
2024-02-05T04:54:37.248Z,95692.00
2024-02-05T04:55:40.217Z,95698.00
2024-02-05T04:56:37.300Z,95698.00
2024-02-05T04:57:37.363Z,95696.00
2024-02-05T04:58:37.379Z,95702.00
2024-02-05T04:59:37.393Z,95694.00
2024-02-05T05:03:16.832Z,95685.00
2024-02-05T05:04:18.479Z,95688.00
2024-02-05T05:05:16.782Z,95694.00
2024-02-05T05:06:16.740Z,95692.00
2024-02-05T05:07:16.825Z,95685.00
2024-02-05T05:08:17.112Z,95692.00
2024-02-05T05:09:17.067Z,95686.00
2024-02-05T05:10:16.918Z,95686.00
2024-02-05T05:11:17.467Z,95694.00
2024-02-05T05:12:16.785Z,95696.00
2024-02-05T05:13:16.949Z,95690.00
2024-02-05T05:14:16.634Z,95685.00
2024-02-05T05:15:16.803Z,95686.00
2024-02-05T05:16:16.751Z,95700.00
2024-02-05T05:17:16.824Z,95708.00
2024-02-05T05:18:16.887Z,95712.00
2024-02-05T05:19:16.763Z,95710.00
2024-02-05T05:20:16.684Z,95708.00
2024-02-05T05:21:16.713Z,95706.00
2024-02-05T05:22:16.849Z,95708.00
2024-02-05T05:23:17.278Z,95708.00
2024-02-05T05:24:16.759Z,95706.00
2024-02-05T05:25:17.010Z,95706.00
2024-02-05T05:26:17.482Z,95712.00
2024-02-05T05:27:16.974Z,95712.00
2024-02-05T05:28:17.382Z,95718.00
2024-02-05T05:30:38.401Z,95722.00
2024-02-05T05:31:37.697Z,95716.00
2024-02-05T05:32:37.532Z,95710.00
2024-02-05T05:33:37.624Z,95714.00
2024-02-05T05:37:17.912Z,95714.00
2024-02-05T05:38:17.273Z,95712.00
2024-02-05T05:39:16.748Z,95712.00
2024-02-05T05:40:17.340Z,95716.00
2024-02-05T05:41:16.994Z,95718.00
2024-02-05T05:42:16.762Z,95718.00
2024-02-05T05:43:16.875Z,95714.00
2024-02-05T05:44:16.802Z,95720.00
2024-02-05T05:45:16.746Z,95730.00
2024-02-05T05:46:16.729Z,95730.00
2024-02-05T06:05:12.273Z,95743.00
2024-02-05T06:11:10.921Z,95741.00
2024-02-05T06:22:55.297Z,95761.00
2024-02-05T06:23:51.021Z,95759.00
2024-02-05T06:24:50.450Z,95769.00
2024-02-05T06:36:28.500Z,95771.00
2024-02-05T06:37:27.574Z,95765.00
2024-02-05T06:41:37.661Z,95773.00
2024-02-05T06:42:23.543Z,95769.00
2024-02-05T06:43:23.682Z,95769.00
2024-02-05T06:44:24.035Z,95767.00
2024-02-05T06:45:24.291Z,95771.00
2024-02-05T06:46:24.028Z,95769.00
2024-02-05T06:47:23.517Z,95765.00
2024-02-05T06:51:47.325Z,95781.00
2024-02-05T06:52:44.301Z,95781.00
2024-02-05T07:00:26.615Z,95783.00
2024-02-05T07:01:26.365Z,95783.00
2024-02-05T07:02:28.504Z,95790.00
2024-02-05T07:08:12.482Z,95806.00
2024-02-05T07:09:11.536Z,95806.00
2024-02-05T07:10:12.022Z,95814.00
2024-02-05T07:11:11.016Z,95816.00
2024-02-05T07:12:11.361Z,95804.00
2024-02-05T07:16:26.893Z,95808.00
2024-02-05T07:19:30.436Z,95808.00
2024-02-05T07:21:48.614Z,95800.00
2024-02-05T07:22:48.721Z,95802.00
2024-02-05T07:23:48.836Z,95800.00
2024-02-05T07:24:48.609Z,95798.00
2024-02-05T07:25:48.492Z,95800.00
2024-02-05T07:26:49.423Z,95808.00
2024-02-05T07:36:23.682Z,95798.00
2024-02-05T07:37:24.860Z,95806.00
2024-02-05T07:38:23.612Z,95808.00
2024-02-05T07:39:23.757Z,95806.00
2024-02-05T07:40:23.908Z,95814.00
2024-02-05T07:41:24.152Z,95816.00
2024-02-05T08:03:12.676Z,95836.00
2024-02-05T08:04:11.793Z,95832.00
2024-02-05T08:05:14.776Z,95832.00
2024-02-05T08:06:12.265Z,95836.00
2024-02-05T08:07:11.622Z,95838.00
2024-02-05T08:08:11.396Z,95838.00
2024-02-05T08:09:11.885Z,95838.00
2024-02-05T08:23:51.794Z,95836.00
2024-02-05T08:24:51.837Z,95841.00
2024-02-05T08:25:51.431Z,95843.00
2024-02-05T08:26:51.404Z,95847.00
2024-02-05T08:27:51.658Z,95853.00
2024-02-05T08:28:51.619Z,95855.00
2024-02-05T08:29:51.364Z,95851.00
2024-02-05T08:30:51.689Z,95851.00
2024-02-05T08:31:52.055Z,95855.00
2024-02-05T08:32:51.711Z,95849.00
2024-02-05T08:33:51.530Z,95849.00
2024-02-05T08:34:51.529Z,95851.00
2024-02-05T08:35:51.385Z,95845.00
2024-02-05T08:36:51.334Z,95845.00
2024-02-05T08:37:51.313Z,95853.00
2024-02-05T08:38:51.444Z,95853.00
2024-02-05T08:39:51.642Z,95855.00
2024-02-05T08:40:51.340Z,95855.00
2024-02-05T08:41:51.567Z,95857.00
2024-02-05T08:42:51.484Z,95855.00
2024-02-05T08:43:51.521Z,95853.00
2024-02-05T08:44:51.735Z,95849.00
2024-02-05T08:45:51.771Z,95845.00
2024-02-05T08:46:51.373Z,95841.00
2024-02-05T08:47:51.315Z,95845.00
2024-02-05T08:48:51.416Z,95851.00
2024-02-05T08:49:51.890Z,95851.00
2024-02-05T08:50:51.308Z,95853.00
2024-02-05T08:51:51.411Z,95851.00
2024-02-05T08:52:51.209Z,95853.00
2024-02-05T08:53:51.276Z,95853.00
2024-02-05T08:54:51.244Z,95847.00
2024-02-05T08:55:52.159Z,95849.00
2024-02-05T08:56:51.325Z,95843.00
2024-02-05T08:57:51.364Z,95838.00
2024-02-05T08:58:51.231Z,95834.00
2024-02-05T08:59:51.330Z,95832.00
2024-02-05T09:00:51.326Z,95841.00
2024-02-05T09:01:51.373Z,95845.00
2024-02-05T09:02:52.106Z,95847.00
2024-02-05T09:03:51.208Z,95843.00
2024-02-05T09:04:51.218Z,95839.00
2024-02-05T09:05:51.507Z,95834.00
2024-02-05T09:06:51.872Z,95828.00
2024-02-05T09:07:52.472Z,95824.00
2024-02-05T09:08:51.191Z,95826.00
2024-02-05T09:09:51.385Z,95830.00
2024-02-05T09:10:51.140Z,95836.00
2024-02-05T09:12:01.195Z,95834.00
2024-02-05T09:12:52.511Z,95824.00
2024-02-05T09:13:51.132Z,95818.00
2024-02-05T09:14:51.191Z,95816.00
2024-02-05T09:15:51.181Z,95814.00
2024-02-05T09:16:53.880Z,95812.00
2024-02-05T09:17:51.621Z,95808.00
2024-02-05T09:18:51.213Z,95808.00
2024-02-05T09:19:51.357Z,95812.00
2024-02-05T09:20:51.308Z,95808.00
2024-02-05T09:21:51.258Z,95810.00
2024-02-05T09:22:52.105Z,95806.00
2024-02-05T09:23:51.092Z,95806.00
2024-02-05T09:24:51.225Z,95806.00
2024-02-05T09:25:51.582Z,95808.00
2024-02-05T09:26:51.461Z,95810.00
2024-02-05T09:27:51.133Z,95804.00
2024-02-05T09:28:51.664Z,95806.00
2024-02-05T09:29:51.244Z,95798.00
2024-02-05T09:31:01.623Z,95794.00
2024-02-05T09:31:52.194Z,95802.00
2024-02-05T09:32:51.483Z,95810.00
2024-02-05T09:33:51.255Z,95806.00
2024-02-05T09:34:51.189Z,95806.00
2024-02-05T09:35:51.847Z,95798.00
2024-02-05T09:36:51.127Z,95792.00
2024-02-05T09:37:51.232Z,95792.00
2024-02-05T09:38:51.948Z,95787.00
2024-02-05T09:39:51.427Z,95785.00
2024-02-05T09:40:51.113Z,95788.00
2024-02-05T09:41:51.114Z,95796.00
2024-02-05T09:42:51.121Z,95800.00
2024-02-05T09:43:52.403Z,95806.00
2024-02-05T09:44:51.182Z,95806.00
2024-02-05T09:45:53.297Z,95798.00
2024-02-05T09:46:51.765Z,95790.00
2024-02-05T09:47:51.541Z,95788.00
2024-02-05T09:48:52.375Z,95790.00
2024-02-05T09:49:51.460Z,95802.00
2024-02-05T09:50:51.346Z,95802.00
2024-02-05T09:51:52.471Z,95796.00
2024-02-05T09:52:51.446Z,95787.00
2024-02-05T09:53:53.434Z,95787.00
2024-02-05T09:54:51.797Z,95788.00
2024-02-05T09:55:51.422Z,95787.00
2024-02-05T09:56:51.333Z,95787.00
2024-02-05T09:57:51.385Z,95783.00
2024-02-05T09:58:51.332Z,95783.00
2024-02-05T09:59:51.341Z,95783.00
2024-02-05T10:00:52.635Z,95781.00
2024-02-05T10:01:51.868Z,95787.00
2024-02-05T10:02:51.334Z,95788.00
2024-02-05T10:03:51.403Z,95785.00
2024-02-05T10:04:51.482Z,95785.00
2024-02-05T10:05:51.419Z,95783.00
2024-02-05T10:06:51.421Z,95779.00
2024-02-05T10:07:51.404Z,95775.00
2024-02-05T10:08:51.234Z,95773.00
2024-02-05T10:09:51.383Z,95775.00
2024-02-05T10:10:51.276Z,95777.00
2024-02-05T10:11:51.297Z,95777.00
2024-02-05T10:12:51.302Z,95777.00
2024-02-05T10:13:51.426Z,95779.00
2024-02-05T10:14:51.370Z,95769.00
2024-02-05T10:15:52.701Z,95773.00
2024-02-05T10:16:52.218Z,95769.00
2024-02-05T10:17:51.432Z,95771.00
2024-02-05T10:18:51.689Z,95775.00
2024-02-05T10:19:51.636Z,95773.00
2024-02-05T10:20:51.424Z,95771.00
2024-02-05T10:21:51.729Z,95767.00
2024-02-05T10:22:52.205Z,95765.00
2024-02-05T10:23:51.560Z,95757.00
2024-02-05T10:24:51.666Z,95765.00
2024-02-05T10:25:51.572Z,95769.00
2024-02-05T10:26:51.823Z,95771.00
2024-02-05T10:27:51.838Z,95771.00
2024-02-05T10:28:51.830Z,95769.00
2024-02-05T10:29:51.837Z,95765.00
2024-02-05T10:30:51.986Z,95759.00
2024-02-05T10:31:51.826Z,95763.00
2024-02-05T10:32:51.939Z,95763.00
2024-02-05T10:33:52.157Z,95757.00
2024-02-05T10:34:51.979Z,95757.00
2024-02-05T10:35:52.034Z,95759.00
2024-02-05T10:36:52.379Z,95757.00
2024-02-05T10:37:52.065Z,95755.00
2024-02-05T10:38:52.165Z,95753.00
2024-02-05T10:39:52.110Z,95757.00
2024-02-05T10:40:52.264Z,95753.00
2024-02-05T10:41:52.248Z,95753.00
2024-02-05T10:42:53.081Z,95749.00
2024-02-05T10:43:52.685Z,95745.00
2024-02-05T10:44:52.217Z,95741.00
2024-02-05T10:45:52.343Z,95741.00
2024-02-05T10:46:53.638Z,95739.00
2024-02-05T10:47:52.418Z,95737.00
2024-02-05T10:48:52.433Z,95733.00
2024-02-05T10:49:52.584Z,95733.00
2024-02-05T10:50:52.450Z,95726.00
2024-02-05T10:51:52.416Z,95732.00
2024-02-05T10:52:52.460Z,95730.00
2024-02-05T10:53:52.387Z,95732.00
2024-02-05T10:54:52.648Z,95730.00
2024-02-05T10:55:53.303Z,95726.00
2024-02-05T10:56:52.477Z,95720.00
2024-02-05T10:57:52.581Z,95722.00
2024-02-05T10:58:52.704Z,95716.00
2024-02-05T10:59:52.661Z,95710.00
2024-02-05T11:00:52.734Z,95712.00
2024-02-05T11:01:56.094Z,95704.00
2024-02-05T11:02:52.774Z,95710.00
2024-02-05T11:03:52.769Z,95708.00
2024-02-05T11:04:53.051Z,95708.00
2024-02-05T11:05:52.761Z,95706.00
2024-02-05T11:06:52.861Z,95696.00
2024-02-05T11:07:52.788Z,95694.00
2024-02-05T11:08:52.763Z,95688.00
2024-02-05T11:09:52.649Z,95688.00
2024-02-05T11:10:52.765Z,95686.00
2024-02-05T11:11:52.591Z,95688.00
2024-02-05T11:12:52.781Z,95690.00
2024-02-05T11:13:52.574Z,95688.00
2024-02-05T11:14:52.576Z,95686.00
2024-02-05T11:15:52.786Z,95683.00
2024-02-05T11:16:52.536Z,95685.00
2024-02-05T11:17:52.612Z,95686.00
2024-02-05T11:18:52.726Z,95688.00
2024-02-05T11:19:52.672Z,95685.00
2024-02-05T11:20:52.665Z,95685.00
2024-02-05T11:21:56.291Z,95681.00
2024-02-05T11:22:52.824Z,95671.00
2024-02-05T11:23:52.487Z,95667.00
2024-02-05T11:24:52.619Z,95667.00
2024-02-05T11:25:52.509Z,95665.00
2024-02-05T11:26:52.610Z,95663.00
2024-02-05T11:27:52.583Z,95661.00
2024-02-05T11:28:52.498Z,95663.00
2024-02-05T11:29:53.115Z,95657.00
2024-02-05T11:30:52.513Z,95657.00
2024-02-05T11:31:52.544Z,95657.00
2024-02-05T11:32:52.673Z,95653.00
2024-02-05T11:33:52.619Z,95651.00
2024-02-05T11:34:52.730Z,95649.00
2024-02-05T11:35:53.891Z,95645.00
2024-02-05T11:36:52.562Z,95647.00
2024-02-05T11:37:52.581Z,95643.00
2024-02-05T11:38:52.574Z,95647.00
2024-02-05T11:39:55.476Z,95649.00
2024-02-05T11:40:52.665Z,95647.00
2024-02-05T11:41:52.511Z,95641.00
2024-02-05T11:42:53.236Z,95631.00
2024-02-05T11:43:52.469Z,95629.00
2024-02-05T11:44:52.454Z,95631.00
2024-02-05T11:45:52.511Z,95639.00
2024-02-05T11:46:52.324Z,95631.00
2024-02-05T11:47:52.416Z,95625.00
2024-02-05T11:48:53.221Z,95639.00
2024-02-05T11:49:52.517Z,95627.00
2024-02-05T11:50:52.339Z,95625.00
2024-02-05T11:51:52.373Z,95624.00
2024-02-05T11:52:53.194Z,95614.00
2024-02-05T11:53:52.331Z,95614.00
2024-02-05T11:54:52.516Z,95610.00
2024-02-05T11:55:52.299Z,95606.00
2024-02-05T11:56:52.434Z,95604.00
2024-02-05T11:57:52.378Z,95600.00
2024-02-05T11:58:52.409Z,95602.00
2024-02-05T11:59:52.372Z,95598.00
2024-02-05T12:00:52.379Z,95600.00
2024-02-05T12:01:52.418Z,95600.00
2024-02-05T12:02:52.248Z,95596.00
2024-02-05T12:03:53.296Z,95592.00
2024-02-05T12:04:52.259Z,95592.00
2024-02-05T12:05:52.252Z,95588.00
2024-02-05T12:06:52.411Z,95586.00
2024-02-05T12:07:53.216Z,95586.00
2024-02-05T12:08:53.988Z,95580.00
2024-02-05T12:09:53.237Z,95582.00
2024-02-05T12:10:52.279Z,95592.00
2024-02-05T12:11:52.220Z,95592.00
2024-02-05T12:12:52.233Z,95580.00
2024-02-05T12:13:52.388Z,95563.00
2024-02-05T12:14:54.091Z,95565.00
2024-02-05T12:15:54.770Z,95573.00
2024-02-05T12:16:53.248Z,95576.00
2024-02-05T12:17:52.608Z,95573.00
2024-02-05T12:18:53.890Z,95561.00
2024-02-05T12:19:52.633Z,95569.00
2024-02-05T12:20:54.646Z,95569.00
2024-02-05T12:21:52.855Z,95569.00
2024-02-05T12:22:52.572Z,95567.00
2024-02-05T12:23:52.668Z,95573.00
2024-02-05T12:24:52.670Z,95569.00
2024-02-05T12:25:52.695Z,95567.00
2024-02-05T12:26:52.622Z,95559.00
2024-02-05T12:27:52.633Z,95563.00
2024-02-05T12:28:53.632Z,95557.00
2024-02-05T12:29:52.570Z,95555.00
2024-02-05T12:30:52.586Z,95551.00
2024-02-05T12:31:52.538Z,95553.00
2024-02-05T12:32:52.564Z,95557.00
2024-02-05T12:33:53.407Z,95557.00
2024-02-05T12:34:52.665Z,95549.00
2024-02-05T12:35:52.509Z,95547.00
2024-02-05T12:36:52.606Z,95541.00
2024-02-05T12:37:52.638Z,95533.00
2024-02-05T12:38:52.515Z,95527.00
2024-02-05T12:39:52.810Z,95525.00
2024-02-05T12:40:52.480Z,95527.00
2024-02-05T12:41:52.695Z,95525.00
2024-02-05T12:42:52.527Z,95527.00
2024-02-05T12:43:52.488Z,95531.00
2024-02-05T12:45:01.411Z,95529.00
2024-02-05T12:45:53.488Z,95523.00
2024-02-05T12:46:52.464Z,95518.00
2024-02-05T12:47:52.520Z,95516.00
2024-02-05T12:48:52.547Z,95516.00
2024-02-05T12:49:52.573Z,95516.00
2024-02-05T12:50:52.443Z,95514.00
2024-02-05T12:51:52.435Z,95510.00
2024-02-05T12:52:52.389Z,95514.00
2024-02-05T12:53:52.487Z,95508.00
2024-02-05T12:54:52.642Z,95508.00
2024-02-05T12:55:52.406Z,95510.00
2024-02-05T12:56:52.510Z,95512.00
2024-02-05T12:57:52.478Z,95510.00
2024-02-05T12:58:52.515Z,95508.00
2024-02-05T12:59:52.340Z,95506.00
2024-02-05T13:00:52.527Z,95502.00
2024-02-05T13:01:54.215Z,95500.00
2024-02-05T13:02:52.411Z,95498.00
2024-02-05T13:03:52.413Z,95492.00
2024-02-05T13:04:52.629Z,95492.00
2024-02-05T13:05:52.665Z,95492.00
2024-02-05T13:06:52.492Z,95488.00
2024-02-05T13:07:52.360Z,95488.00
2024-02-05T13:08:52.378Z,95486.00
2024-02-05T13:09:52.335Z,95490.00
2024-02-05T13:10:52.488Z,95486.00
2024-02-05T13:11:52.328Z,95486.00
2024-02-05T13:12:52.483Z,95486.00
2024-02-05T13:13:52.281Z,95486.00
2024-02-05T13:14:52.318Z,95482.00
2024-02-05T13:15:52.262Z,95484.00
2024-02-05T13:16:52.271Z,95484.00
2024-02-05T13:17:52.323Z,95486.00
2024-02-05T13:18:52.435Z,95488.00
2024-02-05T13:19:52.362Z,95482.00
2024-02-05T13:20:52.160Z,95478.00
2024-02-05T13:21:52.261Z,95480.00
2024-02-05T13:22:52.192Z,95480.00
2024-02-05T13:23:52.277Z,95482.00
2024-02-05T13:24:53.235Z,95482.00
2024-02-05T13:25:52.284Z,95486.00
2024-02-05T13:26:52.300Z,95482.00
2024-02-05T13:27:52.280Z,95480.00
2024-02-05T13:28:52.205Z,95480.00
2024-02-05T13:29:52.219Z,95474.00
2024-02-05T13:30:52.201Z,95472.00
2024-02-05T13:31:52.128Z,95472.00
2024-02-05T13:32:52.160Z,95472.00
2024-02-05T13:33:52.333Z,95472.00
2024-02-05T13:34:52.286Z,95467.00
2024-02-05T13:35:52.081Z,95463.00
2024-02-05T13:36:52.114Z,95471.00
2024-02-05T13:37:52.156Z,95467.00
2024-02-05T13:38:52.795Z,95465.00
2024-02-05T13:39:52.168Z,95463.00
2024-02-05T13:40:52.126Z,95463.00
2024-02-05T13:41:52.115Z,95459.00
2024-02-05T13:42:52.138Z,95457.00
2024-02-05T13:43:52.193Z,95459.00
2024-02-05T13:44:52.124Z,95457.00
2024-02-05T13:45:52.209Z,95455.00
2024-02-05T13:46:52.050Z,95453.00
2024-02-05T13:47:52.127Z,95453.00
2024-02-05T13:48:52.094Z,95453.00
2024-02-05T13:55:23.048Z,95457.00
2024-02-05T13:56:21.986Z,95453.00
2024-02-05T13:57:22.406Z,95453.00
2024-02-05T13:58:22.221Z,95453.00
2024-02-05T13:59:23.873Z,95453.00
2024-02-05T14:00:24.740Z,95451.00
2024-02-05T14:01:21.992Z,95447.00
2024-02-05T14:02:21.952Z,95445.00
2024-02-05T14:03:22.754Z,95447.00
2024-02-05T14:04:22.051Z,95445.00
2024-02-05T14:05:22.145Z,95441.00
2024-02-05T14:06:22.095Z,95445.00
2024-02-05T14:07:22.179Z,95445.00
2024-02-05T14:08:22.075Z,95443.00
2024-02-05T14:09:21.919Z,95447.00
2024-02-05T14:10:21.955Z,95445.00
2024-02-05T14:11:22.075Z,95443.00
2024-02-05T14:12:21.951Z,95445.00
2024-02-05T14:13:21.933Z,95439.00
2024-02-05T14:14:21.888Z,95437.00
2024-02-05T14:15:21.826Z,95439.00
2024-02-05T14:16:21.967Z,95435.00
2024-02-05T14:17:21.847Z,95439.00
2024-02-05T14:18:22.074Z,95437.00
2024-02-05T14:19:22.334Z,95435.00
2024-02-05T14:20:21.858Z,95437.00
2024-02-05T14:21:21.855Z,95439.00
2024-02-05T14:22:21.971Z,95441.00
2024-02-05T14:23:23.866Z,95441.00
2024-02-05T14:24:22.006Z,95441.00
2024-02-05T14:25:21.880Z,95443.00
2024-02-05T14:26:21.788Z,95439.00
2024-02-05T14:27:21.846Z,95441.00
2024-02-05T14:28:21.831Z,95437.00
2024-02-05T14:29:22.119Z,95435.00
2024-02-05T14:30:21.811Z,95439.00
2024-02-05T14:31:22.022Z,95439.00
2024-02-05T14:32:23.878Z,95441.00
2024-02-05T14:33:22.203Z,95439.00
2024-02-05T14:34:22.242Z,95441.00
2024-02-05T14:35:22.193Z,95439.00
2024-02-05T14:36:22.302Z,95435.00
2024-02-05T14:37:22.131Z,95427.00
2024-02-05T14:38:22.274Z,95431.00
2024-02-05T14:39:22.373Z,95435.00
2024-02-05T14:40:22.450Z,95441.00
2024-02-05T14:41:22.226Z,95437.00
2024-02-05T14:42:23.500Z,95431.00
2024-02-05T14:43:22.307Z,95431.00
2024-02-05T14:44:22.541Z,95431.00
2024-02-05T14:45:22.453Z,95431.00
2024-02-05T14:46:22.756Z,95429.00
2024-02-05T14:47:22.507Z,95431.00
2024-02-05T14:48:23.347Z,95431.00
2024-02-05T14:49:23.064Z,95431.00
2024-02-05T14:50:22.788Z,95433.00
2024-02-05T14:51:22.662Z,95437.00
2024-02-05T14:52:22.634Z,95437.00
2024-02-05T14:53:23.891Z,95429.00
2024-02-05T14:54:22.631Z,95433.00
2024-02-05T14:55:22.789Z,95441.00
2024-02-05T14:56:22.806Z,95437.00
2024-02-05T14:57:22.797Z,95431.00
2024-02-05T14:58:22.961Z,95435.00
2024-02-05T14:59:22.981Z,95435.00
2024-02-05T15:00:23.166Z,95435.00
2024-02-05T15:01:23.064Z,95437.00
2024-02-05T15:02:22.977Z,95439.00
2024-02-05T15:03:23.144Z,95439.00
2024-02-05T15:04:23.081Z,95441.00
2024-02-05T15:05:23.226Z,95441.00
2024-02-05T15:06:23.313Z,95443.00
2024-02-05T15:07:23.148Z,95445.00
2024-02-05T15:08:23.152Z,95443.00
2024-02-05T15:09:23.200Z,95449.00
2024-02-05T15:10:23.199Z,95447.00
2024-02-05T15:11:23.184Z,95449.00
2024-02-05T15:12:23.270Z,95447.00
2024-02-05T15:13:23.324Z,95449.00
2024-02-05T15:14:23.344Z,95449.00
2024-02-05T15:15:23.406Z,95453.00
2024-02-05T15:16:23.668Z,95445.00
2024-02-05T15:17:23.512Z,95451.00
2024-02-05T15:18:23.617Z,95451.00
2024-02-05T15:19:23.676Z,95449.00
2024-02-05T15:20:23.670Z,95447.00
2024-02-05T15:21:23.663Z,95449.00
2024-02-05T15:22:23.855Z,95453.00
2024-02-05T15:23:23.618Z,95451.00
2024-02-05T15:24:23.738Z,95455.00
2024-02-05T15:25:23.812Z,95455.00
2024-02-05T15:26:24.682Z,95453.00
2024-02-05T15:27:23.870Z,95455.00
2024-02-05T15:28:23.992Z,95453.00
2024-02-05T15:29:23.846Z,95449.00
2024-02-05T15:30:23.908Z,95449.00
2024-02-05T15:31:24.078Z,95451.00
2024-02-05T15:32:24.804Z,95453.00
2024-02-05T15:33:24.765Z,95449.00
2024-02-05T15:34:24.206Z,95455.00
2024-02-05T15:35:24.289Z,95455.00
2024-02-05T15:36:24.146Z,95457.00
2024-02-05T15:37:24.386Z,95459.00
2024-02-05T15:38:24.213Z,95459.00
2024-02-05T15:39:24.224Z,95457.00
2024-02-05T15:40:24.289Z,95461.00
2024-02-05T15:41:24.392Z,95463.00
2024-02-05T15:42:24.313Z,95459.00
2024-02-05T15:43:25.467Z,95461.00
2024-02-05T15:44:24.498Z,95463.00
2024-02-05T15:45:24.577Z,95463.00
2024-02-05T15:46:24.740Z,95459.00
2024-02-05T15:47:24.801Z,95467.00
2024-02-05T15:48:25.813Z,95465.00
2024-02-05T15:49:24.865Z,95467.00
2024-02-05T15:50:24.910Z,95465.00
2024-02-05T15:51:24.990Z,95467.00
2024-02-05T15:52:24.913Z,95467.00
2024-02-05T15:53:24.875Z,95465.00
2024-02-05T15:54:25.024Z,95467.00
2024-02-05T15:55:26.315Z,95465.00
2024-02-05T15:56:31.022Z,95469.00
2024-02-05T15:57:26.047Z,95469.00
2024-02-05T15:58:25.086Z,95469.00
2024-02-05T15:59:25.045Z,95469.00
2024-02-05T16:00:25.035Z,95469.00
2024-02-05T16:01:27.705Z,95471.00
2024-02-05T16:02:26.016Z,95474.00
2024-02-05T16:03:24.953Z,95472.00
2024-02-05T16:04:25.147Z,95471.00
2024-02-05T16:05:25.018Z,95467.00
2024-02-05T16:06:25.183Z,95467.00
2024-02-05T16:07:26.544Z,95467.00
2024-02-05T16:08:24.976Z,95472.00
2024-02-05T16:09:24.947Z,95469.00